createdAt,value
2023-02-01T00:01:23.702Z,4.32
2023-02-01T00:03:50.146Z,4.38
2023-02-01T00:06:16.658Z,4.38
2023-02-01T00:08:43.087Z,4.41
2023-02-01T00:11:12.250Z,4.37
2023-02-01T00:13:41.216Z,4.38
2023-02-01T00:16:13.840Z,4.43
2023-02-01T00:18:40.397Z,4.42
2023-02-01T00:21:06.873Z,4.42
2023-02-01T00:23:35.267Z,4.47
2023-02-01T00:26:06.383Z,4.45
2023-02-01T00:28:33.709Z,4.46
2023-02-01T00:31:04.925Z,4.49
2023-02-01T00:33:32.772Z,4.58
2023-02-01T00:36:04.239Z,4.58
2023-02-01T00:38:31.780Z,4.58
2023-02-01T00:41:12.598Z,4.57
2023-02-01T00:43:40.103Z,4.62
2023-02-01T00:46:06.813Z,4.62
2023-02-01T00:48:33.657Z,4.58
2023-02-01T00:51:05.941Z,4.62
2023-02-01T00:53:32.626Z,4.60
2023-02-01T00:55:59.124Z,4.64
2023-02-01T00:58:26.656Z,4.61
2023-02-01T01:01:07.066Z,4.60
2023-02-01T01:03:36.005Z,4.57
2023-02-01T01:06:05.019Z,4.55
2023-02-01T01:08:31.619Z,4.57
2023-02-01T01:10:58.135Z,4.51
2023-02-01T01:13:24.970Z,4.53
2023-02-01T01:15:51.476Z,4.44
2023-02-01T01:18:17.877Z,4.42
2023-02-01T01:20:44.351Z,4.34
2023-02-01T01:23:10.914Z,4.36
2023-02-01T01:25:40.900Z,4.35
2023-02-01T01:28:07.967Z,4.37
2023-02-01T01:30:36.238Z,4.42
2023-02-01T01:33:02.743Z,4.42
2023-02-01T01:35:33.111Z,4.42
2023-02-01T01:38:01.006Z,4.40
2023-02-01T01:40:28.877Z,4.41
2023-02-01T01:42:56.495Z,4.38
2023-02-01T01:45:22.906Z,4.37
2023-02-01T01:47:55.124Z,4.39
2023-02-01T01:50:34.663Z,4.30
2023-02-01T01:53:06.455Z,4.36
2023-02-01T01:55:37.895Z,4.38
2023-02-01T01:58:08.620Z,4.33
2023-02-01T02:00:35.940Z,4.30
2023-02-01T02:03:20.649Z,4.30
2023-02-01T02:05:50.210Z,4.22
2023-02-01T02:08:18.501Z,4.27
2023-02-01T02:11:03.148Z,4.30
2023-02-01T02:13:35.016Z,4.23
2023-02-01T02:16:25.956Z,4.22
2023-02-01T02:19:18.191Z,4.19
2023-02-01T02:22:06.593Z,4.20
2023-02-01T02:25:11.636Z,4.23
2023-02-01T02:27:50.042Z,4.19
2023-02-01T02:30:31.470Z,4.15
2023-02-01T02:33:20.342Z,4.19
2023-02-01T02:36:00.635Z,4.25
2023-02-01T02:39:05.070Z,4.28
2023-02-01T02:41:56.330Z,4.33
2023-02-01T02:45:13.613Z,4.35
2023-02-01T02:47:55.642Z,4.30
2023-02-01T02:51:02.151Z,4.40
2023-02-01T02:53:55.280Z,4.38
2023-02-01T02:56:42.669Z,4.36
2023-02-01T02:59:30.844Z,4.37
2023-02-01T03:02:16.325Z,4.45
2023-02-01T03:04:43.346Z,4.45
2023-02-01T03:07:15.135Z,4.48
2023-02-01T03:09:45.501Z,4.56
2023-02-01T03:12:34.109Z,4.51
2023-02-01T03:15:13.639Z,4.62
2023-02-01T03:17:44.322Z,4.66
2023-02-01T03:20:14.457Z,4.62
2023-02-01T03:22:42.320Z,4.61
2023-02-01T03:25:14.315Z,4.64
2023-02-01T03:27:55.032Z,4.65
2023-02-01T03:30:31.001Z,4.64
2023-02-01T03:33:01.222Z,4.71
2023-02-01T03:35:30.237Z,4.69
2023-02-01T03:38:04.798Z,4.76
2023-02-01T03:40:36.293Z,4.80
2023-02-01T03:43:06.002Z,4.81
2023-02-01T03:45:37.885Z,4.81
2023-02-01T03:48:05.781Z,4.80
2023-02-01T03:50:34.414Z,4.78
2023-02-01T03:53:08.083Z,4.80
2023-02-01T03:55:35.888Z,4.85
2023-02-01T03:58:06.352Z,4.83
2023-02-01T04:00:32.839Z,4.82
2023-02-01T04:02:59.612Z,4.76
2023-02-01T04:05:26.301Z,4.80
2023-02-01T04:07:52.704Z,4.78
2023-02-01T04:10:19.967Z,4.77
2023-02-01T04:12:46.782Z,4.78
2023-02-01T04:15:13.240Z,4.78
2023-02-01T04:17:39.745Z,4.79
2023-02-01T04:20:06.481Z,4.79
2023-02-01T04:22:33.278Z,4.76
2023-02-01T04:24:59.764Z,4.84
2023-02-01T04:27:26.228Z,4.91
2023-02-01T04:29:52.714Z,4.94
2023-02-01T04:32:20.807Z,4.95
2023-02-01T04:34:47.271Z,5.03
2023-02-01T04:37:13.760Z,5.09
2023-02-01T04:39:40.365Z,5.09
2023-02-01T04:42:06.879Z,5.12
2023-02-01T04:44:33.369Z,5.12
2023-02-01T04:46:59.822Z,5.16
2023-02-01T04:49:27.779Z,5.16
2023-02-01T04:51:54.244Z,5.18
2023-02-01T04:54:20.737Z,5.21
2023-02-01T04:56:47.157Z,5.23
2023-02-01T04:59:13.796Z,5.25
2023-02-01T05:01:40.278Z,5.23
2023-02-01T05:04:06.704Z,5.23
2023-02-01T05:06:33.139Z,5.24
2023-02-01T05:08:59.597Z,5.27
2023-02-01T05:11:44.570Z,5.31
2023-02-01T05:14:11.199Z,5.31
2023-02-01T05:16:37.629Z,5.35
2023-02-01T05:19:04.090Z,5.38
2023-02-01T05:21:30.519Z,5.38
2023-02-01T05:24:14.032Z,5.36
2023-02-01T05:26:41.998Z,5.38
2023-02-01T05:29:10.244Z,5.34
2023-02-01T05:31:37.381Z,5.41
2023-02-01T05:34:04.235Z,5.38
2023-02-01T05:36:31.253Z,5.42
2023-02-01T05:38:57.735Z,5.42
2023-02-01T05:41:24.558Z,5.43
2023-02-01T05:43:51.009Z,5.40
2023-02-01T05:46:17.674Z,5.42
2023-02-01T05:48:44.297Z,5.43
2023-02-01T05:51:12.633Z,5.40
2023-02-01T05:53:39.169Z,5.40
2023-02-01T05:56:06.291Z,5.37
2023-02-01T05:58:32.833Z,5.37
2023-02-01T06:01:02.775Z,5.39
2023-02-01T06:03:29.422Z,5.40
2023-02-01T06:05:56.211Z,5.44
2023-02-01T06:08:25.312Z,5.37
2023-02-01T06:10:51.907Z,5.42
2023-02-01T06:13:18.370Z,5.40
2023-02-01T06:15:45.971Z,5.40
2023-02-01T06:18:12.381Z,5.41
2023-02-01T06:20:38.885Z,5.43
2023-02-01T06:23:06.601Z,5.41
2023-02-01T06:25:33.073Z,5.45
2023-02-01T06:28:02.111Z,5.44
2023-02-01T06:30:28.748Z,5.46
2023-02-01T06:32:55.165Z,5.54
2023-02-01T06:35:22.004Z,5.49
2023-02-01T06:37:48.501Z,5.48
2023-02-01T06:40:15.213Z,5.47
2023-02-01T06:42:41.757Z,5.49
2023-02-01T06:45:08.863Z,5.48
2023-02-01T06:47:35.329Z,5.45
2023-02-01T06:50:01.795Z,5.40
2023-02-01T06:52:28.293Z,5.37
2023-02-01T06:54:54.719Z,5.38
2023-02-01T06:57:21.135Z,5.39
2023-02-01T06:59:47.513Z,5.39
2023-02-01T07:02:14.018Z,5.42
2023-02-01T07:04:40.410Z,5.38
2023-02-01T07:07:06.945Z,5.34
2023-02-01T07:09:33.442Z,5.34
2023-02-01T07:11:59.934Z,5.34
2023-02-01T07:14:26.392Z,5.32
2023-02-01T07:16:52.818Z,5.26
2023-02-01T07:19:19.233Z,5.24
2023-02-01T07:21:45.652Z,5.26
2023-02-01T07:24:12.067Z,5.30
2023-02-01T07:26:38.608Z,5.30
2023-02-01T07:29:05.092Z,5.31
2023-02-01T07:31:31.595Z,5.31
2023-02-01T07:33:59.218Z,5.33
2023-02-01T07:36:25.728Z,5.42
2023-02-01T07:38:55.369Z,5.39
2023-02-01T07:41:22.997Z,5.32
2023-02-01T07:43:51.707Z,5.33
2023-02-01T07:46:18.280Z,5.37
2023-02-01T07:48:44.823Z,5.37
2023-02-01T07:51:14.193Z,5.33
2023-02-01T07:53:41.374Z,5.35
2023-02-01T07:56:16.297Z,5.38
2023-02-01T07:58:43.331Z,5.40
2023-02-01T08:01:21.812Z,5.44
2023-02-01T08:03:49.918Z,5.45
2023-02-01T08:06:17.130Z,5.45
2023-02-01T08:08:46.146Z,5.46
2023-02-01T08:11:12.672Z,5.50
2023-02-01T08:13:39.210Z,5.47
2023-02-01T08:16:08.411Z,5.52
2023-02-01T08:18:36.222Z,5.51
2023-02-01T08:21:14.016Z,5.57
2023-02-01T08:23:41.779Z,5.57
2023-02-01T08:26:22.695Z,5.61
2023-02-01T08:29:11.500Z,5.57
2023-02-01T08:31:41.567Z,5.60
2023-02-01T08:34:09.379Z,5.64
2023-02-01T08:36:36.164Z,5.65
2023-02-01T08:39:06.610Z,5.69
2023-02-01T08:41:33.044Z,5.82
2023-02-01T08:43:59.577Z,5.77
2023-02-01T08:46:26.059Z,5.93
2023-02-01T08:48:53.473Z,6.39
2023-02-01T08:51:21.563Z,6.86
2023-02-01T08:53:48.589Z,7.38
2023-02-01T08:56:17.077Z,7.65
2023-02-01T08:58:44.361Z,7.35
2023-02-01T09:01:13.968Z,7.35
2023-02-01T09:03:41.343Z,7.52
2023-02-01T09:06:11.373Z,7.62
2023-02-01T09:08:39.289Z,7.30
2023-02-01T09:11:08.655Z,6.84
2023-02-01T09:13:36.388Z,6.65
2023-02-01T09:16:04.234Z,6.72
2023-02-01T09:18:30.917Z,6.45
2023-02-01T09:20:57.573Z,7.02
2023-02-01T09:23:24.126Z,8.93
2023-02-01T09:25:52.429Z,9.75
2023-02-01T09:28:19.464Z,11.07
2023-02-01T09:30:46.184Z,12.58
2023-02-01T09:33:12.773Z,10.76
2023-02-01T09:35:39.236Z,14.27
2023-02-01T09:38:05.786Z,16.23
2023-02-01T09:40:35.357Z,14.67
2023-02-01T09:43:12.376Z,12.10
2023-02-01T09:46:01.495Z,11.14
2023-02-01T09:48:43.947Z,10.47
2023-02-01T09:51:44.856Z,8.91
2023-02-01T09:54:17.112Z,8.22
2023-02-01T09:56:47.685Z,7.78
2023-02-01T09:59:35.744Z,7.45
2023-02-01T10:02:04.170Z,7.28
2023-02-01T10:04:30.790Z,7.15
2023-02-01T10:07:14.668Z,7.11
2023-02-01T10:10:00.313Z,7.04
2023-02-01T10:12:59.198Z,6.95
2023-02-01T10:15:36.672Z,6.86
2023-02-01T10:18:25.765Z,6.87
2023-02-01T10:21:22.863Z,6.81
2023-02-01T10:24:17.299Z,6.76
2023-02-01T10:26:51.964Z,6.76
2023-02-01T10:29:23.465Z,6.76
2023-02-01T10:31:50.038Z,6.72
2023-02-01T10:34:27.209Z,6.61
2023-02-01T10:36:57.632Z,6.52
2023-02-01T10:39:24.433Z,6.47
2023-02-01T10:41:51.167Z,6.33
2023-02-01T10:44:25.828Z,6.33
2023-02-01T10:46:52.454Z,6.29
2023-02-01T10:49:33.608Z,6.26
2023-02-01T10:52:24.431Z,6.25
2023-02-01T10:54:50.987Z,6.26
2023-02-01T10:57:27.019Z,6.22
2023-02-01T10:59:53.905Z,6.24
2023-02-01T11:02:28.991Z,6.29
2023-02-01T11:05:25.243Z,6.31
2023-02-01T11:08:00.449Z,6.31
2023-02-01T11:10:41.818Z,6.33
2023-02-01T11:13:18.824Z,6.39
2023-02-01T11:15:47.651Z,6.42
2023-02-01T11:18:37.804Z,6.42
2023-02-01T11:21:06.874Z,6.36
2023-02-01T11:23:34.591Z,6.37
2023-02-01T11:26:08.608Z,6.41
2023-02-01T11:28:38.685Z,6.44
2023-02-01T11:31:10.089Z,6.46
2023-02-01T11:33:48.699Z,6.43
2023-02-01T11:36:18.586Z,6.39
2023-02-01T11:39:15.751Z,6.42
2023-02-01T11:42:02.524Z,6.40
2023-02-01T11:44:40.694Z,6.30
2023-02-01T11:47:30.136Z,6.41
2023-02-01T11:50:02.239Z,6.35
2023-02-01T11:52:52.806Z,6.39
2023-02-01T11:55:34.972Z,6.37
2023-02-01T11:58:10.610Z,6.41
2023-02-01T12:01:00.463Z,6.43
2023-02-01T12:04:04.620Z,6.51
2023-02-01T12:06:51.715Z,6.56
2023-02-01T12:09:42.381Z,6.59
2023-02-01T12:12:31.877Z,6.68
2023-02-01T12:15:23.395Z,6.75
2023-02-01T12:17:58.917Z,6.86
2023-02-01T12:20:32.218Z,6.90
2023-02-01T12:23:20.593Z,6.93
2023-02-01T12:26:08.873Z,7.01
2023-02-01T12:28:44.324Z,7.13
2023-02-01T12:31:36.709Z,7.18
2023-02-01T12:34:21.322Z,7.10
2023-02-01T12:36:53.327Z,7.10
2023-02-01T12:39:46.577Z,7.10
2023-02-01T12:42:22.236Z,7.03
2023-02-01T12:44:57.568Z,6.99
2023-02-01T12:47:30.730Z,7.03
2023-02-01T12:50:01.285Z,7.05
2023-02-01T12:52:49.877Z,7.04
2023-02-01T12:55:35.188Z,7.10
2023-02-01T12:58:11.733Z,7.12
2023-02-01T13:00:42.341Z,7.10
2023-02-01T13:03:15.123Z,7.08
2023-02-01T13:05:50.022Z,7.09
2023-02-01T13:08:24.554Z,7.10
2023-02-01T13:11:19.194Z,7.14
2023-02-01T13:14:09.800Z,7.17
2023-02-01T13:16:41.566Z,7.20
2023-02-01T13:19:32.335Z,7.28
2023-02-01T13:22:08.734Z,7.33
2023-02-01T13:24:48.013Z,7.28
2023-02-01T13:27:15.685Z,7.25
2023-02-01T13:29:57.724Z,7.23
2023-02-01T13:33:54.446Z,7.20
2023-02-01T13:36:12.059Z,7.19
2023-02-01T13:38:56.052Z,7.18
2023-02-01T13:41:29.494Z,7.19
2023-02-01T13:44:19.052Z,7.20
2023-02-01T13:46:48.580Z,7.18
2023-02-01T13:49:22.043Z,7.22
2023-02-01T13:51:52.709Z,7.24
2023-02-01T13:54:34.715Z,7.20
2023-02-01T13:57:03.028Z,7.20
2023-02-01T13:59:51.488Z,7.21
2023-02-01T14:02:39.516Z,7.22
2023-02-01T14:05:10.345Z,7.24
2023-02-01T14:07:36.806Z,7.28
2023-02-01T14:10:55.058Z,7.31
2023-02-01T14:13:39.166Z,7.28
2023-02-01T14:16:05.740Z,7.26
2023-02-01T14:18:38.384Z,7.26
2023-02-01T14:21:23.798Z,7.26
2023-02-01T14:24:15.849Z,7.24
2023-02-01T14:26:47.674Z,7.20
2023-02-01T14:29:21.114Z,7.22
2023-02-01T14:31:57.908Z,7.26
2023-02-01T14:34:44.281Z,7.25
2023-02-01T14:37:36.149Z,7.20
2023-02-01T14:40:17.104Z,7.23
2023-02-01T14:42:43.541Z,7.20
2023-02-01T14:45:25.955Z,7.19
2023-02-01T14:48:15.696Z,7.19
2023-02-01T14:50:50.582Z,7.21
2023-02-01T14:53:22.942Z,7.15
2023-02-01T14:56:11.505Z,7.20
2023-02-01T14:58:43.546Z,7.15
2023-02-01T15:01:49.337Z,7.18
2023-02-01T15:04:22.869Z,7.19
2023-02-01T15:06:55.127Z,7.18
2023-02-01T15:09:32.274Z,7.18
2023-02-01T15:12:04.983Z,7.18
2023-02-01T15:14:35.194Z,7.16
2023-02-01T15:17:02.251Z,7.15
2023-02-01T15:19:31.477Z,7.17
2023-02-01T15:21:59.609Z,7.17
2023-02-01T15:24:29.632Z,7.18
2023-02-01T15:27:02.856Z,7.19
2023-02-01T15:29:33.347Z,7.18
2023-02-01T15:32:00.884Z,7.19
2023-02-01T15:34:50.290Z,7.22
2023-02-01T15:37:19.433Z,7.19
2023-02-01T15:40:04.445Z,7.19
2023-02-01T15:42:30.948Z,7.22
2023-02-01T15:44:57.752Z,7.18
2023-02-01T15:47:30.394Z,7.19
2023-02-01T15:49:59.461Z,7.22
2023-02-01T15:52:36.425Z,7.21
2023-02-01T15:55:06.908Z,7.24
2023-02-01T15:57:41.088Z,7.23
2023-02-01T16:00:19.847Z,7.20
2023-02-01T16:03:06.340Z,7.17
2023-02-01T16:05:39.348Z,7.16
2023-02-01T16:08:22.899Z,7.14
2023-02-01T16:10:52.346Z,7.15
2023-02-01T16:13:21.267Z,7.16
2023-02-01T16:15:48.813Z,7.15
2023-02-01T16:18:18.437Z,7.19
2023-02-01T16:20:46.350Z,7.15
2023-02-01T16:23:12.851Z,7.13
2023-02-01T16:25:40.544Z,7.13
2023-02-01T16:28:07.493Z,7.17
2023-02-01T16:30:34.221Z,7.17
2023-02-01T16:33:09.027Z,7.18
2023-02-01T16:35:37.746Z,7.19
2023-02-01T16:38:12.922Z,7.18
2023-02-01T16:40:40.767Z,7.16
2023-02-01T16:43:16.988Z,7.19
2023-02-01T16:45:50.564Z,7.20
2023-02-01T16:48:30.098Z,7.20
2023-02-01T16:51:02.721Z,7.17
2023-02-01T16:53:36.600Z,7.18
2023-02-01T16:56:17.297Z,7.24
2023-02-01T16:58:44.298Z,7.25
2023-02-01T17:01:13.263Z,7.26
2023-02-01T17:03:40.795Z,7.31
2023-02-01T17:06:10.302Z,7.30
2023-02-01T17:08:43.263Z,7.33
2023-02-01T17:11:12.806Z,7.34
2023-02-01T17:13:41.898Z,7.35
2023-02-01T17:16:29.829Z,7.35
2023-02-01T17:19:18.243Z,7.34
2023-02-01T17:21:52.453Z,7.31
2023-02-01T17:24:23.203Z,7.37
2023-02-01T17:26:51.540Z,7.40
2023-02-01T17:29:18.802Z,7.33
2023-02-01T17:31:54.877Z,7.34
2023-02-01T17:34:23.179Z,7.35
2023-02-01T17:36:50.139Z,7.36
2023-02-01T17:39:36.100Z,7.35
2023-02-01T17:42:04.457Z,7.41
2023-02-01T17:44:30.940Z,7.43
2023-02-01T17:46:59.298Z,7.43
2023-02-01T17:49:28.771Z,7.45
2023-02-01T17:51:57.020Z,7.45
2023-02-01T17:54:23.538Z,7.44
2023-02-01T17:56:50.065Z,7.46
2023-02-01T17:59:17.535Z,7.47
2023-02-01T18:01:44.029Z,7.41
2023-02-01T18:04:13.533Z,7.41
2023-02-01T18:06:40.205Z,7.42
2023-02-01T18:09:07.451Z,7.42
2023-02-01T18:11:34.009Z,7.44
2023-02-01T18:14:00.560Z,7.43
2023-02-01T18:16:30.155Z,7.38
2023-02-01T18:19:04.904Z,7.39
2023-02-01T18:21:41.726Z,7.36
2023-02-01T18:24:12.507Z,7.39
2023-02-01T18:26:38.947Z,7.36
2023-02-01T18:29:05.385Z,7.38
2023-02-01T18:31:32.915Z,7.35
2023-02-01T18:34:00.900Z,7.35
2023-02-01T18:36:28.690Z,7.37
2023-02-01T18:38:57.577Z,7.36
2023-02-01T18:41:25.347Z,7.35
2023-02-01T18:43:52.409Z,7.38
2023-02-01T18:46:19.512Z,7.38
2023-02-01T18:48:46.090Z,7.45
2023-02-01T18:51:17.381Z,7.45
2023-02-01T18:53:43.835Z,7.47
2023-02-01T18:56:13.548Z,7.42
2023-02-01T18:58:40.821Z,7.46
2023-02-01T19:01:14.457Z,7.46
2023-02-01T19:03:44.060Z,7.43
2023-02-01T19:06:16.902Z,7.46
2023-02-01T19:08:46.261Z,7.46
2023-02-01T19:11:13.455Z,7.46
2023-02-01T19:13:40.502Z,7.44
2023-02-01T19:16:09.037Z,7.48
2023-02-01T19:18:36.206Z,7.45
2023-02-01T19:21:08.173Z,7.45
2023-02-01T19:23:34.746Z,7.43
2023-02-01T19:26:01.215Z,7.46
2023-02-01T19:28:27.788Z,7.46
2023-02-01T19:31:04.893Z,7.45
2023-02-01T19:33:32.049Z,7.43
2023-02-01T19:36:05.324Z,7.44
2023-02-01T19:38:33.203Z,7.48
2023-02-01T19:40:59.750Z,7.44
2023-02-01T19:43:26.364Z,7.46
2023-02-01T19:45:53.944Z,7.49
2023-02-01T19:48:20.630Z,7.45
2023-02-01T19:50:47.199Z,7.52
2023-02-01T19:53:13.680Z,7.51
2023-02-01T19:55:45.261Z,7.53
2023-02-01T19:58:11.722Z,7.52
2023-02-01T20:00:37.274Z,7.50
2023-02-01T20:03:03.798Z,7.51
2023-02-01T20:05:30.309Z,7.49
2023-02-01T20:07:56.735Z,7.51
2023-02-01T20:10:23.450Z,7.51
2023-02-01T20:12:50.071Z,7.56
2023-02-01T20:15:16.759Z,7.54
2023-02-01T20:17:43.443Z,7.55
2023-02-01T20:20:10.604Z,7.56
2023-02-01T20:22:37.056Z,7.55
2023-02-01T20:25:04.301Z,7.51
2023-02-01T20:27:31.613Z,7.53
2023-02-01T20:29:58.046Z,7.53
2023-02-01T20:32:24.545Z,7.51
2023-02-01T20:34:53.476Z,7.52
2023-02-01T20:37:21.203Z,7.48
2023-02-01T20:39:47.709Z,7.48
2023-02-01T20:42:14.232Z,7.46
2023-02-01T20:44:40.654Z,7.50
2023-02-01T20:47:07.148Z,7.47
2023-02-01T20:49:34.804Z,7.55
2023-02-01T20:52:01.267Z,7.62
2023-02-01T20:54:27.718Z,7.57
2023-02-01T20:56:54.210Z,7.64
2023-02-01T20:59:20.640Z,7.63
2023-02-01T21:01:52.912Z,7.63
2023-02-01T21:04:22.018Z,7.62
2023-02-01T21:06:48.866Z,7.60
2023-02-01T21:09:15.975Z,7.60
2023-02-01T21:11:42.657Z,7.59
2023-02-01T21:14:09.112Z,7.61
2023-02-01T21:16:35.607Z,7.66
2023-02-01T21:19:02.146Z,7.67
2023-02-01T21:21:28.858Z,7.63
2023-02-01T21:23:57.112Z,7.66
2023-02-01T21:26:25.403Z,7.66
2023-02-01T21:28:53.625Z,7.62
2023-02-01T21:31:22.334Z,7.62
2023-02-01T21:33:49.401Z,7.63
2023-02-01T21:36:19.760Z,7.64
2023-02-01T21:38:47.513Z,7.62
2023-02-01T21:41:32.366Z,7.62
2023-02-01T21:43:58.792Z,7.62
2023-02-01T21:46:25.221Z,7.61
2023-02-01T21:49:04.949Z,7.64
2023-02-01T21:51:35.016Z,7.64
2023-02-01T21:54:01.565Z,7.63
2023-02-01T21:56:28.023Z,7.61
2023-02-01T21:58:54.503Z,7.62
2023-02-01T22:01:21.525Z,7.63
2023-02-01T22:03:49.153Z,7.61
2023-02-01T22:06:27.523Z,7.62
2023-02-01T22:08:54.340Z,7.60
2023-02-01T22:11:21.255Z,7.59
2023-02-01T22:13:47.676Z,7.61
2023-02-01T22:16:17.973Z,7.64
2023-02-01T22:18:45.660Z,7.66
2023-02-01T22:21:12.173Z,7.63
2023-02-01T22:23:38.601Z,7.57
2023-02-01T22:26:09.033Z,7.54
2023-02-01T22:28:36.936Z,7.55
2023-02-01T22:31:06.297Z,7.54
2023-02-01T22:33:33.904Z,7.40
2023-02-01T22:36:01.378Z,7.32
2023-02-01T22:38:31.009Z,7.30
2023-02-01T22:40:59.974Z,7.37
2023-02-01T22:43:26.795Z,7.34
2023-02-01T22:45:54.158Z,7.33
2023-02-01T22:48:21.162Z,7.33
2023-02-01T22:50:47.563Z,7.30
2023-02-01T22:53:13.970Z,7.33
2023-02-01T22:55:42.328Z,7.31
2023-02-01T22:58:08.891Z,7.16
2023-02-01T23:00:35.404Z,7.05
2023-02-01T23:03:01.855Z,7.14
2023-02-01T23:05:28.347Z,7.02
2023-02-01T23:07:54.792Z,7.08
2023-02-01T23:10:22.237Z,7.08
2023-02-01T23:12:50.063Z,7.10
2023-02-01T23:15:17.427Z,7.06
2023-02-01T23:17:44.534Z,7.06
2023-02-01T23:20:16.943Z,7.01
2023-02-01T23:22:45.488Z,6.99
2023-02-01T23:25:14.260Z,7.08
2023-02-01T23:27:40.756Z,6.99
2023-02-01T23:30:08.075Z,7.05
2023-02-01T23:32:35.939Z,6.99
2023-02-01T23:35:04.109Z,6.98
2023-02-01T23:37:30.931Z,7.00
2023-02-01T23:39:57.552Z,7.03
2023-02-01T23:42:23.987Z,6.98
2023-02-01T23:44:50.480Z,6.96
2023-02-01T23:47:16.910Z,6.95
2023-02-01T23:49:43.379Z,7.01
2023-02-01T23:52:10.404Z,6.97
2023-02-01T23:54:36.819Z,7.02
2023-02-01T23:57:03.295Z,6.94
2023-02-01T23:59:32.621Z,6.94
